This is the latest recevied weather packets stored in our database for station/object KD0RIH. If no packets are shown the sender has not sent any weather packets the latest 10 day(s).
| Time | Temp. | Humidity | Pressure | Rain* | Wind** | Luminosity | Snow |
|---|---|---|---|---|---|---|---|
| 1777472822 | 13.89° C | 54% | 1020.4 hPa | 0 mm | - | 550 W/m² | - |
| 1777472518 | 15° C | 50% | 1020.3 hPa | 0 mm | - | 541 W/m² | - |
| 1777472215 | 15° C | 51% | 1020.3 hPa | 0 mm | - | 516 W/m² | - |
| 1777471910 | 15° C | 51% | 1020.3 hPa | 0 mm | - | 502 W/m² | - |
| 1777471608 | 14.44° C | 54% | 1020.3 hPa | 0 mm | - | 482 W/m² | - |
| 1777471304 | 13.89° C | 56% | 1020.4 hPa | 0 mm | - | 446 W/m² | - |
| 1777471001 | 13.89° C | 55% | 1020.3 hPa | 0 mm | - | 289 W/m² | - |
| 1777470698 | 13.89° C | 54% | 1020.5 hPa | 0 mm | - | 377 W/m² | - |
| 1777470393 | 13.33° C | 56% | 1020.7 hPa | 0 mm | - | 402 W/m² | - |
| 1777470091 | 13.33° C | 55% | 1020.5 hPa | 0 mm | - | 387 W/m² | - |
| 1777469787 | 13.33° C | 57% | 1020.4 hPa | 0 mm | - | 365 W/m² | - |
| 1777469482 | 12.22° C | 60% | 1020.2 hPa | 0 mm | - | 344 W/m² | - |
| 1777469177 | 12.22° C | 61% | 1020.4 hPa | 0 mm | - | 323 W/m² | - |
| 1777468877 | 12.22° C | 61% | 1020.4 hPa | 0 mm | - | 302 W/m² | - |
| 1777468574 | 11.67° C | 61% | 1020.3 hPa | 0 mm | - | 281 W/m² | - |
| 1777468271 | 11.67° C | 62% | 1020.4 hPa | 0 mm | - | 261 W/m² | - |
| 1777467967 | 11.67° C | 64% | 1020.4 hPa | 0 mm | - | 242 W/m² | - |
| 1777467663 | 11.11° C | 67% | 1020.3 hPa | 0 mm | - | 111 W/m² | - |
| 1777467358 | 11.11° C | 68% | 1020.1 hPa | 0 mm | - | 117 W/m² | - |
| 1777467054 | 10.56° C | 70% | 1020 hPa | 0 mm | - | 186 W/m² | - |
| 1777466751 | 11.11° C | 70% | 1020.1 hPa | 0 mm | - | 168 W/m² | - |
| 1777466449 | 10.56° C | 73% | 1020.2 hPa | 0 mm | - | 151 W/m² | - |
| 1777466145 | 10.56° C | 75% | 1019.9 hPa | 0 mm | - | 133 W/m² | - |
| 1777465842 | 9.44° C | 77% | 1020.1 hPa | 0 mm | - | 118 W/m² | - |
| 1777465537 | 8.89° C | 80% | 1019.9 hPa | 0 mm | - | 105 W/m² | - |
* Rain latest hour (hover to see other rain measurements)
** Current wind speed in m/s (hover to see current wind gust speed)